Time;durP1;ratioP1;P1;durP2;ratioP2;P2;SDS_P1;SDS_P2;PMS_P1;PMS_P2;Temp;Humidity;BMP_temperature;BMP_pressure;BME280_temperature;BME280_humidity;BME280_pressure;Samples;Min_cycle;Max_cycle;Signal;HPM_P1;HPM_P2
2022/05/21 00:01:06;;;;;;;8.38;5.47;;;;;;;18.63;94.09;98671.75;8149549;29;20056;-74
2022/05/21 00:05:08;;;;;;;8.30;4.93;;;;;;;18.46;93.79;98673.06;8176357;28;20044;-72
2022/05/21 00:09:09;;;;;;;7.72;4.43;;;;;;;18.37;93.90;98669.84;8174222;29;20047;-72
2022/05/21 00:13:12;;;;;;;12.80;4.90;;;;;;;18.35;94.14;98672.16;8180189;28;20051;-72
2022/05/21 00:17:12;;;;;;;11.00;4.30;;;;;;;18.36;93.57;98668.25;8185571;28;20130;-73
2022/05/21 00:21:14;;;;;;;8.85;4.43;;;;;;;18.38;93.20;98665.94;8172584;28;20052;-73
2022/05/21 00:25:18;;;;;;;10.18;4.65;;;;;;;18.37;93.40;98680.78;8177228;28;20054;-72
2022/05/21 00:29:20;;;;;;;9.30;4.85;;;;;;;18.31;93.52;98671.31;8173093;28;20040;-73
2022/05/21 00:33:23;;;;;;;8.88;4.90;;;;;;;18.28;94.21;98675.59;8176390;29;20111;-73
2022/05/21 00:37:28;;;;;;;10.75;5.40;;;;;;;18.17;94.09;98669.19;8178844;29;20062;-72
2022/05/21 00:41:28;;;;;;;6.80;4.18;;;;;;;18.07;95.20;98684.28;8179787;29;20076;-72
2022/05/21 00:45:32;;;;;;;9.13;4.10;;;;;;;18.05;95.69;98696.72;8189671;28;20058;-73
2022/05/21 00:49:34;;;;;;;3.53;3.20;;;;;;;17.89;95.50;98694.13;8171183;29;20464;-72
2022/05/21 00:53:36;;;;;;;3.67;3.10;;;;;;;17.76;95.56;98695.50;8172729;28;20058;-73
2022/05/21 00:57:47;;;;;;;6.93;3.25;;;;;;;17.71;94.71;98687.63;8178736;28;20524;-72
2022/05/21 01:01:51;;;;;;;3.47;2.70;;;;;;;17.70;93.44;98697.75;8220098;28;20056;-72
2022/05/21 01:05:52;;;;;;;7.32;2.83;;;;;;;17.63;93.49;98685.91;8194896;28;20138;-74
2022/05/21 01:09:55;;;;;;;4.32;2.80;;;;;;;17.60;93.65;98698.38;8199848;28;20066;-72
2022/05/21 01:13:56;;;;;;;8.13;2.72;;;;;;;17.55;94.26;98717.75;8220215;28;20055;-72
2022/05/21 01:17:57;;;;;;;9.25;3.55;;;;;;;17.52;94.48;98712.22;8214699;28;20053;-72
2022/05/21 01:21:59;;;;;;;12.10;3.70;;;;;;;17.53;95.29;98724.72;8184520;28;20052;-71
2022/05/21 01:26:02;;;;;;;9.95;4.75;;;;;;;17.45;96.60;98733.94;8175594;28;20517;-72
2022/05/21 01:30:06;;;;;;;10.50;5.30;;;;;;;17.48;98.49;98750.38;8178499;28;20054;-72
2022/05/21 01:34:08;;;;;;;7.22;4.68;;;;;;;17.54;99.63;98753.59;8172761;28;20047;-73
2022/05/21 01:38:09;;;;;;;9.85;4.80;;;;;;;17.52;99.65;98744.97;8171395;29;20068;-73
2022/05/21 01:42:10;;;;;;;7.43;5.00;;;;;;;17.59;99.30;98745.13;8180450;28;20066;-72
2022/05/21 01:46:12;;;;;;;7.78;4.38;;;;;;;17.60;99.51;98741.25;8181014;28;20122;-72
2022/05/21 01:50:13;;;;;;;6.97;4.18;;;;;;;17.74;98.89;98741.50;8173682;29;20515;-72
2022/05/21 01:54:14;;;;;;;11.27;4.00;;;;;;;17.67;98.96;98741.38;8178247;28;20043;-72
2022/05/21 01:58:16;;;;;;;4.88;3.75;;;;;;;17.78;97.68;98731.41;8178012;28;20059;-73
2022/05/21 02:02:17;;;;;;;8.35;3.95;;;;;;;17.79;96.76;98743.94;8175747;28;20048;-73
2022/05/21 02:06:19;;;;;;;6.63;3.33;;;;;;;17.86;95.58;98738.59;8176226;29;20051;-73
2022/05/21 02:10:20;;;;;;;5.53;3.30;;;;;;;17.90;93.90;98728.50;8172454;28;20063;-72
2022/05/21 02:14:22;;;;;;;6.95;3.53;;;;;;;17.83;94.24;98750.22;8178254;29;20081;-73
2022/05/21 02:18:24;;;;;;;5.78;3.42;;;;;;;17.87;94.25;98759.25;8177920;28;20471;-72
2022/05/21 02:22:26;;;;;;;5.60;3.03;;;;;;;17.96;92.90;98759.81;8176537;28;20051;-73
2022/05/21 02:26:27;;;;;;;5.53;3.80;;;;;;;17.89;93.48;98770.63;8176955;28;20472;-73
2022/05/21 02:30:29;;;;;;;7.78;4.30;;;;;;;17.94;92.82;98783.97;8182102;28;20051;-72
2022/05/21 02:34:30;;;;;;;9.20;4.55;;;;;;;17.97;92.51;98787.94;8178228;28;20126;-74
2022/05/21 02:42:50;;;;;;;;;;;;;;;17.92;92.32;98797.22;8169073;29;20063;-73
2022/05/21 02:46:53;;;;;;;10.90;4.10;;;;;;;17.91;91.10;98801.13;8204705;28;19930;-73
2022/05/21 02:50:55;;;;;;;12.23;4.38;;;;;;;17.86;90.68;98817.81;8180934;28;20051;-72
2022/05/21 02:54:57;;;;;;;7.07;4.55;;;;;;;17.79;90.31;98816.88;8183284;28;20050;-71
2022/05/21 02:58:58;;;;;;;9.48;3.90;;;;;;;17.79;88.57;98820.41;8150846;29;20069;-72
2022/05/21 03:02:59;;;;;;;5.63;3.80;;;;;;;17.69;87.19;98834.66;8177974;28;20522;-72
2022/05/21 03:07:04;;;;;;;6.63;3.33;;;;;;;17.64;86.63;98846.66;8170831;29;20054;-73
2022/05/21 03:11:05;;;;;;;10.02;4.35;;;;;;;17.55;86.90;98842.56;8190497;28;20080;-72
2022/05/21 03:15:07;;;;;;;9.38;3.97;;;;;;;17.46;87.02;98861.06;8171581;28;20043;-72
2022/05/21 03:19:08;;;;;;;7.60;3.70;;;;;;;17.49;86.09;98844.00;8151475;28;20054;-72
2022/05/21 03:23:10;;;;;;;8.65;3.80;;;;;;;17.44;86.72;98852.47;8194899;28;20047;-73
2022/05/21 03:27:11;;;;;;;4.35;3.40;;;;;;;17.42;86.60;98854.75;8189232;29;20500;-72
2022/05/21 03:31:12;;;;;;;10.30;3.65;;;;;;;17.40;82.78;98865.25;8178522;28;20079;-73
2022/05/21 03:35:16;;;;;;;5.88;2.80;;;;;;;17.29;83.06;98884.91;8202139;28;20056;-73
2022/05/21 03:39:17;;;;;;;8.50;3.60;;;;;;;17.20;83.22;98898.00;8155558;29;20096;-71
2022/05/21 03:43:18;;;;;;;5.88;3.20;;;;;;;17.13;82.76;98891.59;8178956;28;20051;-71
2022/05/21 03:47:19;;;;;;;6.75;2.97;;;;;;;17.01;82.63;98894.44;8181149;28;20051;-71
2022/05/21 03:51:20;;;;;;;9.43;3.05;;;;;;;16.95;83.35;98912.22;8173585;28;20087;-72
2022/05/21 03:55:21;;;;;;;5.55;2.40;;;;;;;16.92;82.86;98919.19;8178743;29;20043;-72
2022/05/21 03:59:22;;;;;;;7.55;2.10;;;;;;;16.77;77.95;98906.34;8176854;28;20054;-72
2022/05/21 04:03:24;;;;;;;6.45;1.85;;;;;;;16.54;78.55;98925.28;8205463;28;20409;-72
2022/05/21 04:07:25;;;;;;;3.55;1.40;;;;;;;16.47;75.20;98912.25;8179239;29;20468;-72
2022/05/21 04:11:26;;;;;;;2.78;1.00;;;;;;;16.40;71.73;98920.25;8181688;29;20059;-72
2022/05/21 04:15:30;;;;;;;4.22;1.10;;;;;;;16.27;71.61;98923.41;8180860;29;20051;-71
2022/05/21 04:19:31;;;;;;;3.13;0.90;;;;;;;16.18;72.23;98926.28;8174549;28;20143;-71
2022/05/21 04:23:32;;;;;;;3.35;1.10;;;;;;;16.29;71.98;98930.09;8190360;28;20138;-72
2022/05/21 04:27:34;;;;;;;3.20;1.10;;;;;;;16.31;71.99;98938.72;8178272;28;20051;-73
2022/05/21 04:31:36;;;;;;;4.18;1.60;;;;;;;16.27;72.59;98937.84;8215744;28;20489;-73
2022/05/21 04:39:56;;;;;;;5.35;1.40;;;;;;;15.91;74.29;98949.72;8182943;29;20079;-72
2022/05/21 04:43:58;;;;;;;4.13;1.10;;;;;;;15.80;73.39;98967.69;8179991;29;20051;-72
2022/05/21 04:48:04;;;;;;;1.42;1.02;;;;;;;15.76;72.83;98971.44;8177068;28;20051;-71
2022/05/21 04:52:05;;;;;;;4.63;0.90;;;;;;;15.77;73.58;98992.06;8207715;28;20521;-72
2022/05/21 04:56:07;;;;;;;4.15;0.85;;;;;;;15.76;73.16;98993.22;8177765;28;20052;-72
2022/05/21 05:00:08;;;;;;;2.35;1.00;;;;;;;15.79;73.13;99004.22;8175592;29;20062;-72
2022/05/21 05:04:10;;;;;;;1.23;0.95;;;;;;;15.85;71.67;99010.22;8200839;28;20043;-72
2022/05/21 05:08:12;;;;;;;3.15;0.98;;;;;;;15.77;71.98;99022.03;8192940;28;20044;-71
2022/05/21 05:12:13;;;;;;;1.85;0.90;;;;;;;15.78;71.70;99018.97;8198952;28;20530;-72
2022/05/21 05:16:14;;;;;;;3.17;1.30;;;;;;;15.89;70.85;99022.00;8199605;28;20078;-73
2022/05/21 05:20:15;;;;;;;4.53;1.20;;;;;;;15.83;71.07;99015.19;8201499;28;20040;-73
2022/05/21 05:24:16;;;;;;;5.70;1.00;;;;;;;15.86;69.81;99017.25;8188560;28;20051;-72
2022/05/21 05:28:20;;;;;;;4.10;0.80;;;;;;;15.80;68.78;99010.47;8193953;28;20055;-72
2022/05/21 05:32:21;;;;;;;7.65;0.80;;;;;;;15.80;69.30;99016.69;8217380;28;20097;-72
2022/05/21 05:36:23;;;;;;;3.80;0.90;;;;;;;15.80;68.34;99032.25;8174435;29;20048;-73
2022/05/21 05:40:24;;;;;;;5.55;0.82;;;;;;;15.77;67.90;99027.47;8180065;28;20138;-72
2022/05/21 05:44:25;;;;;;;0.65;0.60;;;;;;;15.79;67.45;99047.00;8177309;28;20056;-72
2022/05/21 05:48:28;;;;;;;1.60;0.80;;;;;;;15.81;67.17;99039.28;8173145;29;20134;-72
2022/05/21 05:52:29;;;;;;;2.25;0.77;;;;;;;15.76;67.62;99031.31;8168457;29;20063;-73
2022/05/21 05:56:30;;;;;;;3.78;0.80;;;;;;;15.87;66.52;99040.59;8177729;28;20066;-72
2022/05/21 06:00:34;;;;;;;4.90;0.70;;;;;;;16.02;65.61;99050.78;8183211;28;20130;-71
2022/05/21 06:04:35;;;;;;;6.25;0.90;;;;;;;16.22;65.23;99049.81;8196038;28;20051;-72
2022/05/21 06:08:36;;;;;;;3.17;0.70;;;;;;;16.38;65.52;99063.47;8200298;28;20051;-71
2022/05/21 06:12:37;;;;;;;3.90;0.77;;;;;;;16.22;65.03;99066.16;8202371;28;20497;-72
2022/05/21 06:16:41;;;;;;;6.43;1.58;;;;;;;15.87;65.42;99065.09;8180597;29;20496;-72
2022/05/21 06:20:42;;;;;;;5.05;1.00;;;;;;;15.71;64.79;99077.84;8169844;28;20051;-73
2022/05/21 06:24:43;;;;;;;4.85;1.10;;;;;;;15.77;65.44;99062.88;8193970;28;20055;-72
2022/05/21 06:28:48;;;;;;;5.43;0.88;;;;;;;15.96;63.92;99063.06;8184158;28;20051;-72
2022/05/21 06:32:50;;;;;;;6.65;1.05;;;;;;;16.13;63.15;99068.22;8177138;28;20074;-71
2022/05/21 06:36:51;;;;;;;6.20;1.00;;;;;;;16.04;63.38;99075.75;8173644;28;20126;-71
2022/05/21 06:40:52;;;;;;;4.43;1.20;;;;;;;16.41;63.20;99074.47;8201095;28;20063;-72
2022/05/21 06:44:53;;;;;;;10.05;1.40;;;;;;;16.41;62.07;99069.00;8198734;28;20415;-74
2022/05/21 06:48:54;;;;;;;5.22;1.35;;;;;;;16.34;62.82;99085.16;8199250;28;20424;-72
2022/05/21 06:52:55;;;;;;;8.32;1.48;;;;;;;16.36;62.04;99088.34;8197758;28;20130;-73
2022/05/21 06:56:56;;;;;;;4.20;1.20;;;;;;;16.22;62.50;99087.94;8212042;28;20055;-72
2022/05/21 07:00:57;;;;;;;3.58;1.30;;;;;;;16.36;63.14;99082.88;8213542;28;20271;-73
2022/05/21 07:09:20;;;;;;;6.57;1.33;;;;;;;16.51;61.45;99094.19;8211561;28;20487;-74
2022/05/21 07:13:23;;;;;;;6.80;1.50;;;;;;;16.48;60.73;99101.94;8199991;28;20044;-72
2022/05/21 07:17:23;;;;;;;6.40;1.10;;;;;;;16.60;60.62;99103.03;8199360;28;20063;-72
2022/05/21 07:21:25;;;;;;;3.72;1.00;;;;;;;16.70;61.10;99105.25;8212930;28;20048;-73
2022/05/21 07:25:28;;;;;;;10.55;1.50;;;;;;;16.68;59.39;99093.91;8199382;28;20043;-72
2022/05/21 07:29:29;;;;;;;9.25;0.80;;;;;;;16.40;60.48;99116.47;8199605;28;20051;-71
2022/05/21 07:33:33;;;;;;;2.22;1.10;;;;;;;16.79;59.25;99114.06;8199537;28;20427;-72
2022/05/21 07:37:35;;;;;;;4.43;0.90;;;;;;;16.85;58.78;99120.84;8197699;28;20054;-72
2022/05/21 07:41:36;;;;;;;3.35;1.02;;;;;;;16.88;59.04;99125.59;8198732;28;20059;-72
2022/05/21 07:45:39;;;;;;;0.93;0.70;;;;;;;16.74;58.76;99147.84;8199263;28;20459;-73
2022/05/21 07:49:40;;;;;;;7.15;1.10;;;;;;;16.66;58.50;99158.88;8199338;28;20049;-72
2022/05/21 07:53:42;;;;;;;6.10;1.13;;;;;;;16.78;57.30;99164.28;8198580;28;20134;-72
2022/05/21 07:57:42;;;;;;;5.93;0.95;;;;;;;16.95;55.46;99153.09;8198938;28;20483;-72
2022/05/21 08:01:44;;;;;;;10.88;0.93;;;;;;;17.07;54.93;99149.50;8199012;28;20568;-72
2022/05/21 08:05:47;;;;;;;6.05;0.82;;;;;;;17.30;52.57;99148.53;8197927;28;20075;-73
2022/05/21 08:09:49;;;;;;;5.05;0.85;;;;;;;17.63;53.90;99171.97;8202975;28;20043;-72
2022/05/21 08:13:50;;;;;;;3.60;0.95;;;;;;;17.54;52.98;99174.09;8185959;29;20043;-71
2022/05/21 08:17:53;;;;;;;7.60;0.93;;;;;;;17.21;54.05;99161.56;8204135;28;20074;-72
2022/05/21 08:26:56;;;;;;;1.15;0.70;;;;;;;17.12;52.91;99165.59;8203158;28;20055;-72
2022/05/21 08:30:34;;;;;;;4.40;0.77;;;;;;;17.59;53.78;99182.00;8203981;28;20478;-71
2022/05/21 08:34:36;;;;;;;10.57;1.10;;;;;;;17.34;55.04;99200.50;8203974;28;20047;-73
2022/05/21 08:38:37;;;;;;;6.28;1.60;;;;;;;16.96;56.05;99192.88;8203708;28;20050;-73
2022/05/21 08:42:47;;;;;;;1.70;0.90;;;;;;;16.67;57.52;99195.94;8217014;28;20067;-71
2022/05/21 08:47:02;;;;;;;6.25;0.93;;;;;;;17.12;56.60;99204.59;8221688;28;20079;-72
2022/05/21 08:51:08;;;;;;;8.63;1.88;;;;;;;17.50;53.59;99173.22;8231373;28;20096;-74
2022/05/21 08:55:12;;;;;;;6.05;1.45;;;;;;;17.77;51.06;99199.63;8206978;28;20124;-72
2022/05/21 08:59:14;;;;;;;5.38;1.13;;;;;;;17.97;49.78;99193.09;8199028;29;20055;-72
2022/05/21 09:03:20;;;;;;;8.95;1.10;;;;;;;18.08;49.73;99182.41;8227229;28;20058;-72
2022/05/21 09:07:23;;;;;;;11.88;1.15;;;;;;;17.91;48.11;99205.44;8230418;28;20138;-72
2022/05/21 09:11:34;;;;;;;7.20;1.13;;;;;;;18.07;47.37;99214.41;8214515;28;20058;-72
2022/05/21 09:20:03;;;;;;;9.02;1.10;;;;;;;18.41;46.45;99206.56;8201010;28;20130;-72
2022/05/21 09:24:05;;;;;;;8.85;1.40;;;;;;;18.52;47.25;99218.50;8202264;28;20055;-73
2022/05/21 09:28:09;;;;;;;5.00;1.23;;;;;;;18.73;46.05;99218.19;8200743;28;20043;-72
2022/05/21 09:32:20;;;;;;;2.75;1.10;;;;;;;18.38;47.27;99207.28;8201915;28;20047;-73
2022/05/21 09:36:32;;;;;;;6.80;0.90;;;;;;;18.29;46.01;99212.16;8201929;28;20475;-72
2022/05/21 09:40:36;;;;;;;4.55;1.30;;;;;;;18.23;47.39;99216.31;8200659;28;20099;-71
2022/05/21 09:49:13;;;;;;;20.05;2.80;;;;;;;18.20;48.45;99227.94;8199488;28;20043;-72
2022/05/21 09:53:25;;;;;;;5.03;0.75;;;;;;;18.37;44.98;99236.56;8199822;28;20047;-72
2022/05/21 09:57:38;;;;;;;4.63;1.10;;;;;;;18.26;46.65;99226.53;8181756;28;20052;-71
2022/05/21 10:01:45;;;;;;;10.07;1.13;;;;;;;18.68;45.02;99227.47;8169705;29;20072;-72
2022/05/21 10:05:49;;;;;;;10.75;1.45;;;;;;;18.87;46.04;99257.59;8210869;28;20047;-72
2022/05/21 10:14:28;;;;;;;4.03;1.00;;;;;;;18.97;42.42;99207.75;8198743;28;20055;-72
2022/05/21 10:18:44;;;;;;;5.68;1.10;;;;;;;19.04;42.08;99261.03;8194976;28;20059;-72
2022/05/21 10:23:30;;;;;;;4.80;1.02;;;;;;;19.08;42.16;99261.91;8209055;28;20043;-73
2022/05/21 10:27:55;;;;;;;4.28;0.90;;;;;;;19.13;43.14;99264.34;8195772;28;20051;-72
2022/05/21 10:32:17;;;;;;;18.92;1.10;;;;;;;19.06;42.91;99264.22;8194906;28;20051;-72
2022/05/21 10:36:45;;;;;;;3.88;1.23;;;;;;;18.87;43.87;99263.06;8195313;28;20058;-74
2022/05/21 10:41:00;;;;;;;4.32;1.40;;;;;;;18.74;43.87;99264.34;8195948;28;20593;-73
2022/05/21 10:45:29;;;;;;;4.47;0.88;;;;;;;19.16;43.27;99263.63;8194931;28;20051;-73
2022/05/21 10:49:35;;;;;;;3.20;0.90;;;;;;;19.62;43.19;99265.31;8183597;28;20053;-73
2022/05/21 10:53:41;;;;;;;5.40;1.10;;;;;;;19.59;40.59;99254.28;8196354;28;20309;-72
2022/05/21 10:58:22;;;;;;;5.95;1.30;;;;;;;18.96;42.69;99263.66;8195761;28;20053;-73
2022/05/21 11:02:56;;;;;;;5.68;1.08;;;;;;;18.81;42.78;99264.50;8085160;29;20056;-73
2022/05/21 11:07:37;;;;;;;8.40;1.10;;;;;;;19.35;42.80;99267.13;8110971;29;20465;-72
2022/05/21 11:11:50;;;;;;;;;;;;;;;19.58;41.29;99264.44;8103052;29;20580;-72
2022/05/21 11:15:56;;;;;;;9.35;1.15;;;;;;;19.87;40.48;99270.44;8069655;29;19924;-73
2022/05/21 11:20:11;;;;;;;13.77;1.50;;;;;;;19.43;40.15;99262.59;8071310;29;20440;-72
2022/05/21 11:24:22;;;;;;;7.10;1.05;;;;;;;19.32;41.27;99280.75;8071545;29;20549;-72
2022/05/21 11:28:45;;;;;;;9.07;1.27;;;;;;;19.49;41.50;99280.34;8054780;29;20072;-73
2022/05/21 11:37:23;;;;;;;2.25;0.85;;;;;;;19.71;40.16;99279.56;8088770;29;20083;-72
2022/05/21 11:41:53;;;;;;;3.78;1.02;;;;;;;20.12;40.05;99277.09;8132867;29;20048;-72
2022/05/21 11:46:01;;;;;;;7.07;1.00;;;;;;;20.06;40.37;99289.53;8108188;29;20056;-74
2022/05/21 11:50:03;;;;;;;5.77;1.07;;;;;;;19.86;40.37;99268.84;8205789;28;20127;-74
2022/05/21 11:54:04;;;;;;;4.63;1.20;;;;;;;19.68;40.67;99274.81;8205816;28;20055;-72
2022/05/21 11:58:06;;;;;;;2.10;1.13;;;;;;;19.79;40.56;99280.47;8211015;28;20456;-72
2022/05/21 12:02:17;;;;;;;2.20;1.00;;;;;;;20.08;40.70;99276.25;8220724;28;20479;-73
2022/05/21 12:06:30;;;;;;;2.78;0.80;;;;;;;19.64;39.94;99268.47;8217628;28;20047;-72
2022/05/21 12:10:58;;;;;;;7.32;0.90;;;;;;;20.26;39.40;99282.78;8221755;28;20121;-71
2022/05/21 12:15:16;;;;;;;5.35;1.00;;;;;;;20.32;38.79;99292.31;8204160;28;20055;-73
2022/05/21 12:19:49;;;;;;;5.07;1.10;;;;;;;20.34;39.57;99273.56;8205486;28;20043;-73
2022/05/21 12:23:51;;;;;;;3.05;0.85;;;;;;;20.00;40.32;99280.03;8204849;28;20063;-72
2022/05/21 12:27:56;;;;;;;3.53;0.93;;;;;;;19.72;40.34;99292.09;8205120;28;20518;-72
2022/05/21 12:31:59;;;;;;;8.20;1.00;;;;;;;19.49;41.11;99288.56;8202989;28;20058;-72
2022/05/21 12:36:07;;;;;;;6.00;1.00;;;;;;;19.61;41.11;99293.88;8211935;28;20376;-72
2022/05/21 12:40:38;;;;;;;4.88;1.05;;;;;;;20.12;39.73;99283.38;8215867;28;20161;-72
2022/05/21 12:44:45;;;;;;;6.70;1.48;;;;;;;20.62;40.11;99278.66;8168985;29;20140;-72
2022/05/21 12:48:47;;;;;;;3.45;1.02;;;;;;;21.03;39.55;99277.63;8168918;29;20055;-73
2022/05/21 12:52:55;;;;;;;3.47;1.10;;;;;;;21.24;39.58;99260.66;8152138;29;20066;-72
2022/05/21 12:56:56;;;;;;;;;;;;;;;20.94;39.68;99270.81;8152507;29;20442;-73
2022/05/21 13:00:58;;;;;;;5.15;1.00;;;;;;;21.11;38.94;99273.00;8169803;29;19974;-73
2022/05/21 13:04:59;;;;;;;3.35;0.77;;;;;;;21.32;39.03;99283.47;8168448;29;20055;-72
2022/05/21 13:09:01;;;;;;;4.80;1.40;;;;;;;20.98;38.08;99290.91;8168850;29;20055;-72
2022/05/21 13:13:02;;;;;;;1.92;1.10;;;;;;;20.34;39.62;99290.03;8168498;29;20055;-73
2022/05/21 13:17:04;;;;;;;1.17;0.82;;;;;;;19.83;40.91;99286.03;8164317;29;20047;-73
2022/05/21 13:21:43;;;;;;;3.03;0.90;;;;;;;19.64;41.51;99284.91;8173252;28;20055;-73
2022/05/21 13:25:52;;;;;;;7.53;1.02;;;;;;;19.67;42.30;99284.16;8199772;28;20142;-73
2022/05/21 13:29:54;;;;;;;4.10;1.13;;;;;;;19.60;41.55;99289.53;8198959;28;20054;-72
2022/05/21 13:33:55;;;;;;;6.10;0.90;;;;;;;19.63;41.56;99283.31;8205731;28;20110;-73
2022/05/21 13:37:57;;;;;;;1.98;0.90;;;;;;;19.99;40.48;99273.75;8212907;28;20090;-73
2022/05/21 13:42:17;;;;;;;3.25;0.90;;;;;;;20.59;40.35;99284.88;8202418;28;20043;-72
2022/05/21 13:46:24;;;;;;;4.53;0.93;;;;;;;22.83;36.42;99261.16;8198234;28;20047;-74
2022/05/21 13:50:27;;;;;;;3.78;1.10;;;;;;;22.96;36.28;99265.13;8213915;28;20062;-72
2022/05/21 13:54:50;;;;;;;2.55;0.85;;;;;;;22.69;36.22;99259.09;8200121;28;20424;-73
2022/05/21 13:59:15;;;;;;;4.20;0.90;;;;;;;21.45;36.95;99252.63;8225896;28;20109;-72
2022/05/21 14:03:18;;;;;;;1.83;0.85;;;;;;;20.61;39.51;99250.44;8226032;28;20050;-72
2022/05/21 14:07:30;;;;;;;2.25;0.73;;;;;;;22.39;37.10;99253.03;8231658;28;20126;-73
2022/05/21 14:11:33;;;;;;;8.93;1.20;;;;;;;24.60;32.59;99250.31;8245277;28;20137;-73
2022/05/21 14:15:42;;;;;;;1.80;0.80;;;;;;;26.36;30.24;99242.16;8193986;28;20074;-73
2022/05/21 14:20:06;;;;;;;6.30;1.25;;;;;;;27.32;28.57;99243.81;8240867;28;20053;-73
2022/05/21 14:24:15;;;;;;;3.55;1.23;;;;;;;27.79;27.48;99239.16;8251657;28;20049;-73
2022/05/21 14:28:16;;;;;;;3.67;0.90;;;;;;;25.19;30.07;99237.50;8226170;28;20051;-73
2022/05/21 14:32:28;;;;;;;7.28;1.00;;;;;;;22.85;33.60;99236.75;8238967;28;20572;-73
2022/05/21 14:36:42;;;;;;;5.43;1.20;;;;;;;21.84;36.57;99241.19;8207611;28;20544;-73
2022/05/21 14:40:46;;;;;;;6.38;1.05;;;;;;;21.45;37.17;99244.38;8173615;28;20127;-74
2022/05/21 14:44:48;;;;;;;4.75;1.13;;;;;;;20.62;38.44;99238.28;8180064;28;20394;-72
2022/05/21 14:48:48;;;;;;;3.85;0.90;;;;;;;20.01;39.65;99254.22;8188119;28;20066;-72
2022/05/21 14:52:50;;;;;;;5.22;0.88;;;;;;;19.52;40.94;99254.94;8198346;28;20424;-73
2022/05/21 14:56:51;;;;;;;6.75;1.10;;;;;;;19.23;42.25;99241.88;8256184;28;20073;-72
2022/05/21 15:00:53;;;;;;;5.68;1.38;;;;;;;19.06;43.26;99253.25;8243336;28;20620;-73
2022/05/21 15:04:54;;;;;;;13.38;1.50;;;;;;;18.79;47.14;99266.81;8210790;28;20618;-72
2022/05/21 15:08:57;;;;;;;10.40;1.58;;;;;;;17.99;54.57;99278.22;8251571;28;20141;-72
2022/05/21 15:12:58;;;;;;;4.30;0.90;;;;;;;17.06;58.51;99278.88;8217604;28;20435;-71
2022/05/21 15:16:59;;;;;;;4.38;1.30;;;;;;;16.72;59.85;99280.22;8247581;28;20461;-72
2022/05/21 15:21:00;;;;;;;3.17;1.58;;;;;;;17.21;60.33;99278.91;8251666;28;20062;-72
2022/05/21 15:25:04;;;;;;;3.55;0.95;;;;;;;20.94;52.64;99257.09;8257753;28;20050;-73
2022/05/21 15:29:05;;;;;;;4.45;1.30;;;;;;;22.85;48.90;99242.28;8183184;28;20566;-72
2022/05/21 15:33:07;;;;;;;2.67;1.10;;;;;;;24.00;44.76;99245.66;8228144;28;20071;-72
2022/05/21 15:37:09;;;;;;;7.28;1.40;;;;;;;22.44;45.43;99232.59;8184070;29;20111;-71
2022/05/21 15:41:12;;;;;;;3.00;1.00;;;;;;;22.28;45.63;99225.44;8196373;28;20557;-71
2022/05/21 15:45:15;;;;;;;2.38;1.23;;;;;;;21.98;43.85;99222.09;8190158;28;20514;-71
2022/05/21 15:49:16;;;;;;;4.93;1.58;;;;;;;21.84;43.44;99222.72;8198419;28;20055;-73
2022/05/21 15:53:18;;;;;;;4.63;1.50;;;;;;;21.78;44.71;99212.50;8186724;28;20047;-73
2022/05/21 15:57:21;;;;;;;3.90;1.38;;;;;;;22.10;43.22;99213.53;8180894;29;20101;-72
2022/05/21 16:01:23;;;;;;;2.75;1.10;;;;;;;22.38;39.45;99201.13;8190835;28;20137;-72
2022/05/21 16:05:27;;;;;;;4.45;1.50;;;;;;;22.25;39.08;99220.72;8203343;28;20059;-72
2022/05/21 16:09:28;;;;;;;9.32;1.27;;;;;;;22.11;39.65;99215.09;8179112;29;20138;-72
2022/05/21 16:13:30;;;;;;;4.75;1.25;;;;;;;21.53;38.82;99211.47;8253955;28;20042;-72
2022/05/21 16:17:31;;;;;;;6.85;1.20;;;;;;;21.06;39.87;99210.97;8248961;28;20418;-72
2022/05/21 16:21:34;;;;;;;5.25;1.05;;;;;;;20.50;40.35;99211.09;8253829;28;20323;-72
2022/05/21 16:25:35;;;;;;;4.78;1.52;;;;;;;19.93;41.50;99247.03;8216113;28;20061;-72
2022/05/21 16:29:38;;;;;;;13.88;1.60;;;;;;;19.06;43.43;99225.88;8235482;28;20216;-72
2022/05/21 16:33:39;;;;;;;8.07;1.30;;;;;;;18.82;44.77;99232.47;8255994;28;20137;-72
2022/05/21 16:37:41;;;;;;;10.95;1.50;;;;;;;18.46;45.65;99230.88;8250970;28;20395;-72
2022/05/21 16:41:42;;;;;;;9.13;1.50;;;;;;;18.24;46.24;99229.59;8214393;28;20141;-73
2022/05/21 16:45:44;;;;;;;4.35;1.60;;;;;;;18.17;47.00;99262.25;8249784;28;20046;-73
2022/05/21 16:49:45;;;;;;;9.02;1.45;;;;;;;17.75;50.95;99262.03;8225409;28;20047;-73
2022/05/21 16:53:47;;;;;;;4.00;1.20;;;;;;;17.55;52.13;99230.28;8184415;28;20374;-73
2022/05/21 16:57:48;;;;;;;2.42;1.15;;;;;;;17.70;50.94;99245.91;8182253;29;20084;-74
2022/05/21 17:01:49;;;;;;;4.63;1.20;;;;;;;17.59;51.08;99233.88;8198217;28;20134;-73
2022/05/21 17:05:50;;;;;;;3.72;1.27;;;;;;;17.51;51.33;99230.16;8206610;28;20142;-73
2022/05/21 17:09:51;;;;;;;4.47;1.27;;;;;;;17.41;51.02;99240.81;8194317;28;20392;-73
2022/05/21 17:13:54;;;;;;;4.88;1.35;;;;;;;17.41;51.62;99251.75;8176617;28;20070;-73
2022/05/21 17:17:55;;;;;;;3.92;1.13;;;;;;;17.34;52.14;99246.09;8183455;29;20043;-73
2022/05/21 17:22:13;;;;;;;3.70;1.17;;;;;;;17.17;52.74;99237.09;8201374;28;20048;-72
2022/05/21 17:26:14;;;;;;;4.10;1.45;;;;;;;17.10;54.00;99247.00;8188668;28;20047;-73
2022/05/21 17:30:30;;;;;;;2.00;1.40;;;;;;;16.92;54.90;99227.41;8186968;28;20048;-72
2022/05/21 17:34:31;;;;;;;6.35;1.58;;;;;;;16.78;55.62;99218.84;8187005;28;20091;-74
2022/05/21 17:38:34;;;;;;;8.82;2.08;;;;;;;16.55;56.71;99231.41;8188336;29;20055;-73
2022/05/21 17:42:39;;;;;;;2.38;1.90;;;;;;;16.39;57.90;99234.81;8207468;28;20509;-73
2022/05/21 17:46:41;;;;;;;5.65;1.90;;;;;;;16.16;58.77;99231.00;8181928;28;20460;-73
2022/05/21 17:50:43;;;;;;;4.45;2.10;;;;;;;15.98;59.33;99218.75;8199408;28;20047;-73
2022/05/21 17:54:47;;;;;;;6.57;2.30;;;;;;;15.94;59.79;99223.28;8211616;28;20055;-72
2022/05/21 17:58:51;;;;;;;4.13;1.80;;;;;;;15.99;60.31;99223.06;8181551;28;20054;-73
2022/05/21 18:02:52;;;;;;;7.45;2.30;;;;;;;15.93;60.83;99221.69;8201299;28;20048;-71
2022/05/21 18:06:53;;;;;;;4.72;2.15;;;;;;;15.84;61.07;99229.19;8182853;28;20415;-73
2022/05/21 18:10:54;;;;;;;8.00;2.83;;;;;;;15.81;61.29;99229.91;8187024;28;20071;-72
2022/05/21 18:14:56;;;;;;;4.50;2.00;;;;;;;15.79;61.80;99243.03;8177912;29;20043;-72
2022/05/21 18:23:18;;;;;;;4.80;2.30;;;;;;;15.45;66.50;99277.66;8189236;28;20051;-72
2022/05/21 18:27:19;;;;;;;11.05;3.00;;;;;;;15.23;68.34;99275.31;8173619;28;20055;-71
2022/05/21 18:31:27;;;;;;;9.48;2.35;;;;;;;15.07;69.51;99282.50;8178515;28;20070;-72
2022/05/21 18:35:28;;;;;;;5.72;2.15;;;;;;;14.69;73.38;99283.47;8188612;28;20098;-72
2022/05/21 18:39:30;;;;;;;7.20;2.20;;;;;;;14.33;74.60;99275.03;8187395;28;20582;-72
2022/05/21 18:43:31;;;;;;;8.38;2.40;;;;;;;14.06;75.44;99275.53;8216505;28;20044;-72
2022/05/21 18:47:35;;;;;;;5.47;2.63;;;;;;;13.88;76.46;99281.03;8173934;29;20063;-72
2022/05/21 18:51:40;;;;;;;5.28;2.25;;;;;;;13.69;76.86;99277.13;8176270;28;20055;-72
2022/05/21 18:55:42;;;;;;;6.35;2.20;;;;;;;13.59;77.25;99278.25;8179122;28;20048;-74
2022/05/21 18:59:43;;;;;;;8.27;2.33;;;;;;;13.54;77.19;99281.16;8208294;28;20448;-73
2022/05/21 19:03:48;;;;;;;5.25;2.60;;;;;;;13.51;77.53;99276.38;8149330;29;20506;-71
2022/05/21 19:07:48;;;;;;;6.05;2.55;;;;;;;13.56;77.25;99267.25;8199696;28;20051;-72
2022/05/21 19:11:50;;;;;;;3.92;2.50;;;;;;;13.54;76.95;99281.16;8196330;28;20094;-72
2022/05/21 19:15:52;;;;;;;5.65;2.80;;;;;;;13.47;77.60;99286.28;8211606;28;20054;-72
2022/05/21 19:19:55;;;;;;;6.43;2.75;;;;;;;13.40;77.35;99280.56;8197834;28;20049;-72
2022/05/21 19:23:58;;;;;;;9.60;2.70;;;;;;;13.36;77.59;99274.19;8203784;28;20083;-72
2022/05/21 19:28:01;;;;;;;6.00;2.80;;;;;;;13.23;77.71;99296.84;8184220;28;20063;-74
2022/05/21 19:32:24;;;;;;;7.43;3.08;;;;;;;13.11;77.81;99290.16;8208962;28;20181;-72
2022/05/21 19:36:25;;;;;;;9.05;2.92;;;;;;;13.08;78.33;99296.22;8222613;28;20430;-73
2022/05/21 19:44:46;;;;;;;6.63;2.78;;;;;;;13.06;78.03;99293.00;8223839;28;20059;-71
2022/05/21 19:48:48;;;;;;;4.97;2.95;;;;;;;12.98;78.28;99293.81;8207475;28;20054;-72
2022/05/21 19:52:50;;;;;;;4.78;2.80;;;;;;;12.92;78.58;99297.81;8225340;28;20090;-72
2022/05/21 19:56:56;;;;;;;7.20;2.85;;;;;;;13.05;78.35;99291.44;8223412;28;20050;-72